sensor_id;sensor_type;location;lat;lon;timestamp;temperature;humidity
33368;DHT22;19724;51.114;13.906;2023-04-06T00:00:59;1.70;99.90
33368;DHT22;19724;51.114;13.906;2023-04-06T00:03:24;1.60;99.90
33368;DHT22;19724;51.114;13.906;2023-04-06T00:05:50;1.60;99.90
33368;DHT22;19724;51.114;13.906;2023-04-06T00:08:16;1.50;99.90
33368;DHT22;19724;51.114;13.906;2023-04-06T00:10:41;1.50;99.90
33368;DHT22;19724;51.114;13.906;2023-04-06T00:13:07;1.40;99.90
33368;DHT22;19724;51.114;13.906;2023-04-06T00:15:33;1.40;99.90
33368;DHT22;19724;51.114;13.906;2023-04-06T00:17:59;1.30;99.90
33368;DHT22;19724;51.114;13.906;2023-04-06T00:20:24;1.20;99.90
33368;DHT22;19724;51.114;13.906;2023-04-06T00:22:50;1.20;99.90
33368;DHT22;19724;51.114;13.906;2023-04-06T00:25:15;1.00;99.90
33368;DHT22;19724;51.114;13.906;2023-04-06T00:27:41;1.00;99.90
33368;DHT22;19724;51.114;13.906;2023-04-06T00:30:07;0.90;99.90
33368;DHT22;19724;51.114;13.906;2023-04-06T00:32:34;0.90;99.90
33368;DHT22;19724;51.114;13.906;2023-04-06T00:35:01;0.90;99.90
33368;DHT22;19724;51.114;13.906;2023-04-06T00:37:27;0.80;99.90
33368;DHT22;19724;51.114;13.906;2023-04-06T00:39:52;0.90;99.90
33368;DHT22;19724;51.114;13.906;2023-04-06T00:42:18;0.90;99.90
33368;DHT22;19724;51.114;13.906;2023-04-06T00:44:51;0.90;99.90
33368;DHT22;19724;51.114;13.906;2023-04-06T00:47:17;0.90;99.90
33368;DHT22;19724;51.114;13.906;2023-04-06T00:49:42;1.00;99.90
33368;DHT22;19724;51.114;13.906;2023-04-06T00:52:07;0.90;99.90
33368;DHT22;19724;51.114;13.906;2023-04-06T00:54:33;0.90;99.90
33368;DHT22;19724;51.114;13.906;2023-04-06T00:56:59;0.90;99.90
33368;DHT22;19724;51.114;13.906;2023-04-06T00:59:25;1.00;99.90
33368;DHT22;19724;51.114;13.906;2023-04-06T01:01:51;1.00;99.90
33368;DHT22;19724;51.114;13.906;2023-04-06T01:04:16;1.00;99.90
33368;DHT22;19724;51.114;13.906;2023-04-06T01:06:42;1.00;99.90
33368;DHT22;19724;51.114;13.906;2023-04-06T01:09:07;1.00;99.90
33368;DHT22;19724;51.114;13.906;2023-04-06T01:11:33;1.10;99.90
33368;DHT22;19724;51.114;13.906;2023-04-06T01:13:58;1.10;99.90
33368;DHT22;19724;51.114;13.906;2023-04-06T01:16:24;1.10;99.90
33368;DHT22;19724;51.114;13.906;2023-04-06T01:18:49;1.10;99.90
33368;DHT22;19724;51.114;13.906;2023-04-06T01:21:15;1.10;99.90
33368;DHT22;19724;51.114;13.906;2023-04-06T01:23:45;1.10;99.90
33368;DHT22;19724;51.114;13.906;2023-04-06T01:26:11;1.10;99.90
33368;DHT22;19724;51.114;13.906;2023-04-06T01:28:37;1.10;99.90
33368;DHT22;19724;51.114;13.906;2023-04-06T01:31:04;1.10;99.90
33368;DHT22;19724;51.114;13.906;2023-04-06T01:33:29;1.10;99.90
33368;DHT22;19724;51.114;13.906;2023-04-06T01:35:55;1.10;99.90
33368;DHT22;19724;51.114;13.906;2023-04-06T01:38:21;1.10;99.90
33368;DHT22;19724;51.114;13.906;2023-04-06T01:40:46;1.10;99.90
33368;DHT22;19724;51.114;13.906;2023-04-06T01:43:12;1.10;99.90
33368;DHT22;19724;51.114;13.906;2023-04-06T01:45:37;1.00;99.90
33368;DHT22;19724;51.114;13.906;2023-04-06T01:48:03;1.00;99.90
33368;DHT22;19724;51.114;13.906;2023-04-06T01:50:29;1.00;99.90
33368;DHT22;19724;51.114;13.906;2023-04-06T01:52:54;1.00;99.90
33368;DHT22;19724;51.114;13.906;2023-04-06T01:55:20;1.00;99.90
33368;DHT22;19724;51.114;13.906;2023-04-06T01:57:45;1.00;99.90
33368;DHT22;19724;51.114;13.906;2023-04-06T02:00:11;1.00;99.90
33368;DHT22;19724;51.114;13.906;2023-04-06T02:02:37;1.00;99.90
33368;DHT22;19724;51.114;13.906;2023-04-06T02:05:03;1.00;99.90
33368;DHT22;19724;51.114;13.906;2023-04-06T02:07:28;1.00;99.90
33368;DHT22;19724;51.114;13.906;2023-04-06T02:09:54;1.00;99.90
33368;DHT22;19724;51.114;13.906;2023-04-06T02:12:20;1.00;99.90
33368;DHT22;19724;51.114;13.906;2023-04-06T02:14:46;1.00;99.90
33368;DHT22;19724;51.114;13.906;2023-04-06T02:17:11;1.00;99.90
33368;DHT22;19724;51.114;13.906;2023-04-06T02:19:37;1.00;99.90
33368;DHT22;19724;51.114;13.906;2023-04-06T02:22:02;1.00;99.90
33368;DHT22;19724;51.114;13.906;2023-04-06T02:24:28;1.00;99.90
33368;DHT22;19724;51.114;13.906;2023-04-06T02:26:53;1.10;99.90
33368;DHT22;19724;51.114;13.906;2023-04-06T02:29:19;1.00;99.90
33368;DHT22;19724;51.114;13.906;2023-04-06T02:31:45;0.90;99.90
33368;DHT22;19724;51.114;13.906;2023-04-06T02:34:10;0.90;99.90
33368;DHT22;19724;51.114;13.906;2023-04-06T02:36:43;0.80;99.90
33368;DHT22;19724;51.114;13.906;2023-04-06T02:39:09;0.80;99.90
33368;DHT22;19724;51.114;13.906;2023-04-06T02:41:35;0.80;99.90
33368;DHT22;19724;51.114;13.906;2023-04-06T02:44:00;0.70;99.90
33368;DHT22;19724;51.114;13.906;2023-04-06T02:46:26;0.70;99.90
33368;DHT22;19724;51.114;13.906;2023-04-06T02:48:51;0.70;99.90
33368;DHT22;19724;51.114;13.906;2023-04-06T02:51:16;0.70;99.90
33368;DHT22;19724;51.114;13.906;2023-04-06T02:53:42;0.70;99.90
33368;DHT22;19724;51.114;13.906;2023-04-06T02:56:07;0.70;99.90
33368;DHT22;19724;51.114;13.906;2023-04-06T02:58:33;0.80;99.90
33368;DHT22;19724;51.114;13.906;2023-04-06T03:00:58;0.80;99.90
33368;DHT22;19724;51.114;13.906;2023-04-06T03:03:24;0.80;99.90
33368;DHT22;19724;51.114;13.906;2023-04-06T03:05:49;0.80;99.90
33368;DHT22;19724;51.114;13.906;2023-04-06T03:08:15;0.90;99.90
33368;DHT22;19724;51.114;13.906;2023-04-06T03:10:40;0.90;99.90
33368;DHT22;19724;51.114;13.906;2023-04-06T03:13:06;0.90;99.90
33368;DHT22;19724;51.114;13.906;2023-04-06T03:15:31;0.90;99.90
33368;DHT22;19724;51.114;13.906;2023-04-06T03:17:57;0.80;99.90
33368;DHT22;19724;51.114;13.906;2023-04-06T03:20:23;0.80;99.90
33368;DHT22;19724;51.114;13.906;2023-04-06T03:22:48;0.80;99.90
33368;DHT22;19724;51.114;13.906;2023-04-06T03:25:14;0.80;99.90
33368;DHT22;19724;51.114;13.906;2023-04-06T03:27:39;0.80;99.90
33368;DHT22;19724;51.114;13.906;2023-04-06T03:30:06;0.80;99.90
33368;DHT22;19724;51.114;13.906;2023-04-06T03:32:31;0.80;99.90
33368;DHT22;19724;51.114;13.906;2023-04-06T03:34:57;0.70;99.90
33368;DHT22;19724;51.114;13.906;2023-04-06T03:37:22;0.70;99.90
33368;DHT22;19724;51.114;13.906;2023-04-06T03:39:48;0.60;99.90
33368;DHT22;19724;51.114;13.906;2023-04-06T03:42:13;0.60;99.90
33368;DHT22;19724;51.114;13.906;2023-04-06T03:44:38;0.60;99.90
33368;DHT22;19724;51.114;13.906;2023-04-06T03:47:04;0.60;99.90
33368;DHT22;19724;51.114;13.906;2023-04-06T03:49:30;0.60;99.90
33368;DHT22;19724;51.114;13.906;2023-04-06T03:51:56;0.50;99.90
33368;DHT22;19724;51.114;13.906;2023-04-06T03:54:21;0.50;99.90
33368;DHT22;19724;51.114;13.906;2023-04-06T03:56:47;0.50;99.90
33368;DHT22;19724;51.114;13.906;2023-04-06T03:59:12;0.40;99.90
33368;DHT22;19724;51.114;13.906;2023-04-06T04:01:38;0.50;99.90
33368;DHT22;19724;51.114;13.906;2023-04-06T04:04:04;0.40;99.90
33368;DHT22;19724;51.114;13.906;2023-04-06T04:06:30;0.40;99.90
33368;DHT22;19724;51.114;13.906;2023-04-06T04:08:55;0.40;99.90
33368;DHT22;19724;51.114;13.906;2023-04-06T04:11:21;0.30;99.90
33368;DHT22;19724;51.114;13.906;2023-04-06T04:13:46;0.30;99.90
33368;DHT22;19724;51.114;13.906;2023-04-06T04:16:12;0.30;99.90
33368;DHT22;19724;51.114;13.906;2023-04-06T04:18:38;0.20;99.90
33368;DHT22;19724;51.114;13.906;2023-04-06T04:21:03;0.20;99.90
33368;DHT22;19724;51.114;13.906;2023-04-06T04:23:29;0.10;99.90
33368;DHT22;19724;51.114;13.906;2023-04-06T04:25:54;0.10;99.90
33368;DHT22;19724;51.114;13.906;2023-04-06T04:28:20;0.10;99.90
33368;DHT22;19724;51.114;13.906;2023-04-06T04:30:46;0.10;99.90
33368;DHT22;19724;51.114;13.906;2023-04-06T04:33:11;0.00;99.90
33368;DHT22;19724;51.114;13.906;2023-04-06T04:35:37;0.10;99.90
33368;DHT22;19724;51.114;13.906;2023-04-06T04:38:02;0.00;99.90
33368;DHT22;19724;51.114;13.906;2023-04-06T04:40:27;0.00;99.90
33368;DHT22;19724;51.114;13.906;2023-04-06T04:42:53;0.00;99.90
33368;DHT22;19724;51.114;13.906;2023-04-06T04:45:18;0.00;99.90
33368;DHT22;19724;51.114;13.906;2023-04-06T04:47:45;0.00;99.90
33368;DHT22;19724;51.114;13.906;2023-04-06T04:50:11;0.00;99.90
33368;DHT22;19724;51.114;13.906;2023-04-06T04:52:37;0.00;99.90
33368;DHT22;19724;51.114;13.906;2023-04-06T04:55:03;0.00;99.90
33368;DHT22;19724;51.114;13.906;2023-04-06T04:57:28;0.00;99.90
33368;DHT22;19724;51.114;13.906;2023-04-06T04:59:54;-0.10;99.90
33368;DHT22;19724;51.114;13.906;2023-04-06T05:02:20;-0.10;99.90
33368;DHT22;19724;51.114;13.906;2023-04-06T05:04:45;-0.10;99.90
33368;DHT22;19724;51.114;13.906;2023-04-06T05:07:11;-0.10;99.90
33368;DHT22;19724;51.114;13.906;2023-04-06T05:09:36;0.00;99.90
33368;DHT22;19724;51.114;13.906;2023-04-06T05:12:02;0.00;99.90
33368;DHT22;19724;51.114;13.906;2023-04-06T05:14:28;-0.10;99.90
33368;DHT22;19724;51.114;13.906;2023-04-06T05:16:53;0.00;99.90
33368;DHT22;19724;51.114;13.906;2023-04-06T05:19:19;0.00;99.90
33368;DHT22;19724;51.114;13.906;2023-04-06T05:21:45;0.00;99.90
33368;DHT22;19724;51.114;13.906;2023-04-06T05:24:10;0.10;99.90
33368;DHT22;19724;51.114;13.906;2023-04-06T05:26:36;0.30;99.90
33368;DHT22;19724;51.114;13.906;2023-04-06T05:29:02;0.40;99.90
33368;DHT22;19724;51.114;13.906;2023-04-06T05:31:27;0.60;99.90
33368;DHT22;19724;51.114;13.906;2023-04-06T05:33:53;0.60;99.90
33368;DHT22;19724;51.114;13.906;2023-04-06T05:36:19;0.70;99.90
33368;DHT22;19724;51.114;13.906;2023-04-06T05:38:45;0.70;99.90
33368;DHT22;19724;51.114;13.906;2023-04-06T05:41:10;0.70;99.90
33368;DHT22;19724;51.114;13.906;2023-04-06T05:43:36;0.70;99.90
33368;DHT22;19724;51.114;13.906;2023-04-06T05:46:02;0.70;99.90
33368;DHT22;19724;51.114;13.906;2023-04-06T05:48:27;0.70;99.90
33368;DHT22;19724;51.114;13.906;2023-04-06T05:50:53;0.80;99.90
33368;DHT22;19724;51.114;13.906;2023-04-06T05:53:18;0.80;99.90
33368;DHT22;19724;51.114;13.906;2023-04-06T05:55:46;0.80;99.90
33368;DHT22;19724;51.114;13.906;2023-04-06T05:58:11;0.90;99.90
33368;DHT22;19724;51.114;13.906;2023-04-06T06:00:37;0.90;99.90
33368;DHT22;19724;51.114;13.906;2023-04-06T06:03:03;1.00;99.90
33368;DHT22;19724;51.114;13.906;2023-04-06T06:05:34;1.10;99.90
33368;DHT22;19724;51.114;13.906;2023-04-06T06:07:59;1.30;99.90
33368;DHT22;19724;51.114;13.906;2023-04-06T06:10:27;1.40;99.90
33368;DHT22;19724;51.114;13.906;2023-04-06T06:12:53;1.60;99.90
33368;DHT22;19724;51.114;13.906;2023-04-06T06:15:18;1.70;99.90
33368;DHT22;19724;51.114;13.906;2023-04-06T06:17:44;2.00;99.90
33368;DHT22;19724;51.114;13.906;2023-04-06T06:20:09;2.00;99.90
33368;DHT22;19724;51.114;13.906;2023-04-06T06:22:35;2.20;99.90
33368;DHT22;19724;51.114;13.906;2023-04-06T06:25:01;2.40;99.90
33368;DHT22;19724;51.114;13.906;2023-04-06T06:27:26;2.50;99.90
33368;DHT22;19724;51.114;13.906;2023-04-06T06:29:52;2.70;99.90
33368;DHT22;19724;51.114;13.906;2023-04-06T06:32:18;2.90;99.90
33368;DHT22;19724;51.114;13.906;2023-04-06T06:34:43;3.00;99.90
33368;DHT22;19724;51.114;13.906;2023-04-06T06:37:09;3.20;99.90
33368;DHT22;19724;51.114;13.906;2023-04-06T06:39:34;3.40;99.90
33368;DHT22;19724;51.114;13.906;2023-04-06T06:42:00;3.60;99.90
33368;DHT22;19724;51.114;13.906;2023-04-06T06:44:26;3.70;99.90
33368;DHT22;19724;51.114;13.906;2023-04-06T06:46:52;3.90;99.90
33368;DHT22;19724;51.114;13.906;2023-04-06T06:49:17;4.10;99.90
33368;DHT22;19724;51.114;13.906;2023-04-06T06:51:43;4.20;99.90
33368;DHT22;19724;51.114;13.906;2023-04-06T06:54:09;4.40;99.90
33368;DHT22;19724;51.114;13.906;2023-04-06T06:56:35;4.60;99.90
33368;DHT22;19724;51.114;13.906;2023-04-06T06:59:02;4.80;99.90
33368;DHT22;19724;51.114;13.906;2023-04-06T07:01:27;5.00;99.90
33368;DHT22;19724;51.114;13.906;2023-04-06T07:03:53;5.20;99.90
33368;DHT22;19724;51.114;13.906;2023-04-06T07:06:18;5.30;99.90
33368;DHT22;19724;51.114;13.906;2023-04-06T07:08:44;5.50;99.90
33368;DHT22;19724;51.114;13.906;2023-04-06T07:11:09;5.70;99.90
33368;DHT22;19724;51.114;13.906;2023-04-06T07:13:35;5.90;99.90
33368;DHT22;19724;51.114;13.906;2023-04-06T07:16:00;6.10;99.90
33368;DHT22;19724;51.114;13.906;2023-04-06T07:18:26;6.20;99.90
33368;DHT22;19724;51.114;13.906;2023-04-06T07:20:51;6.40;99.90
33368;DHT22;19724;51.114;13.906;2023-04-06T07:23:17;6.50;99.90
33368;DHT22;19724;51.114;13.906;2023-04-06T07:25:42;6.70;99.90
33368;DHT22;19724;51.114;13.906;2023-04-06T07:28:08;6.80;99.90
33368;DHT22;19724;51.114;13.906;2023-04-06T07:30:33;7.00;99.90
33368;DHT22;19724;51.114;13.906;2023-04-06T07:32:58;7.20;99.90
33368;DHT22;19724;51.114;13.906;2023-04-06T07:35:25;7.40;99.90
33368;DHT22;19724;51.114;13.906;2023-04-06T07:37:52;7.60;99.90
33368;DHT22;19724;51.114;13.906;2023-04-06T07:40:17;7.80;99.90
33368;DHT22;19724;51.114;13.906;2023-04-06T07:42:44;7.90;99.90
33368;DHT22;19724;51.114;13.906;2023-04-06T07:47:39;8.30;99.90
33368;DHT22;19724;51.114;13.906;2023-04-06T07:50:05;8.50;99.90
33368;DHT22;19724;51.114;13.906;2023-04-06T07:52:31;8.70;99.90
33368;DHT22;19724;51.114;13.906;2023-04-06T07:54:59;8.80;99.90
33368;DHT22;19724;51.114;13.906;2023-04-06T07:57:25;9.00;99.90
33368;DHT22;19724;51.114;13.906;2023-04-06T07:59:50;9.20;99.90
33368;DHT22;19724;51.114;13.906;2023-04-06T08:02:16;9.40;99.90
33368;DHT22;19724;51.114;13.906;2023-04-06T08:04:42;9.50;99.30
33368;DHT22;19724;51.114;13.906;2023-04-06T08:07:07;9.70;98.10
33368;DHT22;19724;51.114;13.906;2023-04-06T08:09:33;9.90;97.20
33368;DHT22;19724;51.114;13.906;2023-04-06T08:11:58;10.00;96.40
33368;DHT22;19724;51.114;13.906;2023-04-06T08:14:24;10.10;95.80
33368;DHT22;19724;51.114;13.906;2023-04-06T08:16:49;10.30;94.10
33368;DHT22;19724;51.114;13.906;2023-04-06T08:19:15;10.40;93.80
33368;DHT22;19724;51.114;13.906;2023-04-06T08:21:42;10.70;91.90
33368;DHT22;19724;51.114;13.906;2023-04-06T08:24:08;10.80;92.00
33368;DHT22;19724;51.114;13.906;2023-04-06T08:26:33;11.00;90.40
33368;DHT22;19724;51.114;13.906;2023-04-06T08:28:59;11.10;88.70
33368;DHT22;19724;51.114;13.906;2023-04-06T08:31:25;11.20;88.20
33368;DHT22;19724;51.114;13.906;2023-04-06T08:33:51;11.30;83.70
33368;DHT22;19724;51.114;13.906;2023-04-06T08:36:17;11.40;77.80
33368;DHT22;19724;51.114;13.906;2023-04-06T08:38:45;11.60;77.60
33368;DHT22;19724;51.114;13.906;2023-04-06T08:41:12;11.70;75.40
33368;DHT22;19724;51.114;13.906;2023-04-06T08:43:43;11.90;74.80
33368;DHT22;19724;51.114;13.906;2023-04-06T08:46:10;12.00;69.30
33368;DHT22;19724;51.114;13.906;2023-04-06T08:48:38;12.10;71.50
33368;DHT22;19724;51.114;13.906;2023-04-06T08:51:03;12.20;72.50
33368;DHT22;19724;51.114;13.906;2023-04-06T08:53:29;12.40;72.30
33368;DHT22;19724;51.114;13.906;2023-04-06T08:55:56;12.50;69.50
33368;DHT22;19724;51.114;13.906;2023-04-06T08:58:23;12.70;69.60
33368;DHT22;19724;51.114;13.906;2023-04-06T09:00:49;12.90;68.30
33368;DHT22;19724;51.114;13.906;2023-04-06T09:03:16;13.10;67.70
33368;DHT22;19724;51.114;13.906;2023-04-06T09:05:42;13.30;66.70
33368;DHT22;19724;51.114;13.906;2023-04-06T09:08:08;13.30;67.30
33368;DHT22;19724;51.114;13.906;2023-04-06T09:10:34;13.30;66.30
33368;DHT22;19724;51.114;13.906;2023-04-06T09:13:06;13.20;65.40
33368;DHT22;19724;51.114;13.906;2023-04-06T09:15:33;13.30;65.20
33368;DHT22;19724;51.114;13.906;2023-04-06T09:17:59;13.30;62.30
33368;DHT22;19724;51.114;13.906;2023-04-06T09:20:25;13.50;62.50
33368;DHT22;19724;51.114;13.906;2023-04-06T09:22:52;13.60;61.80
33368;DHT22;19724;51.114;13.906;2023-04-06T09:25:20;13.70;61.80
33368;DHT22;19724;51.114;13.906;2023-04-06T09:27:46;13.90;57.60
33368;DHT22;19724;51.114;13.906;2023-04-06T09:30:12;14.30;57.50
33368;DHT22;19724;51.114;13.906;2023-04-06T09:32:54;14.60;56.60
33368;DHT22;19724;51.114;13.906;2023-04-06T09:35:20;15.00;54.00
33368;DHT22;19724;51.114;13.906;2023-04-06T09:37:47;15.30;55.60
33368;DHT22;19724;51.114;13.906;2023-04-06T09:40:13;15.30;54.90
33368;DHT22;19724;51.114;13.906;2023-04-06T09:42:42;15.30;53.70
33368;DHT22;19724;51.114;13.906;2023-04-06T09:45:10;15.30;52.80
33368;DHT22;19724;51.114;13.906;2023-04-06T09:47:36;15.40;53.40
33368;DHT22;19724;51.114;13.906;2023-04-06T09:50:03;15.60;52.60
33368;DHT22;19724;51.114;13.906;2023-04-06T09:52:41;15.70;52.00
33368;DHT22;19724;51.114;13.906;2023-04-06T09:55:08;15.50;50.00
33368;DHT22;19724;51.114;13.906;2023-04-06T09:58:05;15.50;48.70
33368;DHT22;19724;51.114;13.906;2023-04-06T10:00:34;15.60;47.40
33368;DHT22;19724;51.114;13.906;2023-04-06T10:05:59;15.40;48.00
33368;DHT22;19724;51.114;13.906;2023-04-06T10:08:30;15.20;47.60
33368;DHT22;19724;51.114;13.906;2023-04-06T10:10:58;15.00;46.70
33368;DHT22;19724;51.114;13.906;2023-04-06T10:13:23;14.90;46.90
33368;DHT22;19724;51.114;13.906;2023-04-06T10:15:50;14.70;46.60
33368;DHT22;19724;51.114;13.906;2023-04-06T10:18:17;14.70;46.30
33368;DHT22;19724;51.114;13.906;2023-04-06T10:20:50;14.70;47.00
33368;DHT22;19724;51.114;13.906;2023-04-06T10:23:34;14.80;47.40
33368;DHT22;19724;51.114;13.906;2023-04-06T10:26:01;14.80;46.40
33368;DHT22;19724;51.114;13.906;2023-04-06T10:28:32;14.90;46.10
33368;DHT22;19724;51.114;13.906;2023-04-06T10:31:00;14.90;46.30
33368;DHT22;19724;51.114;13.906;2023-04-06T10:33:26;14.90;45.10
33368;DHT22;19724;51.114;13.906;2023-04-06T10:35:52;14.70;44.10
33368;DHT22;19724;51.114;13.906;2023-04-06T10:38:19;14.70;43.90
33368;DHT22;19724;51.114;13.906;2023-04-06T10:40:47;14.60;44.00
33368;DHT22;19724;51.114;13.906;2023-04-06T10:43:20;14.80;44.30
33368;DHT22;19724;51.114;13.906;2023-04-06T10:45:57;14.70;45.70
33368;DHT22;19724;51.114;13.906;2023-04-06T10:48:23;14.60;46.70
33368;DHT22;19724;51.114;13.906;2023-04-06T10:50:51;14.40;47.40
33368;DHT22;19724;51.114;13.906;2023-04-06T10:53:27;14.30;47.80
33368;DHT22;19724;51.114;13.906;2023-04-06T10:55:54;14.30;47.60
33368;DHT22;19724;51.114;13.906;2023-04-06T10:58:24;14.20;46.90
33368;DHT22;19724;51.114;13.906;2023-04-06T11:00:50;14.20;47.30
33368;DHT22;19724;51.114;13.906;2023-04-06T11:03:16;14.10;47.30
33368;DHT22;19724;51.114;13.906;2023-04-06T11:05:49;14.00;47.80
33368;DHT22;19724;51.114;13.906;2023-04-06T11:08:30;13.90;47.60
33368;DHT22;19724;51.114;13.906;2023-04-06T11:11:13;13.90;47.00
33368;DHT22;19724;51.114;13.906;2023-04-06T11:13:45;14.20;46.20
33368;DHT22;19724;51.114;13.906;2023-04-06T11:16:21;14.30;45.90
33368;DHT22;19724;51.114;13.906;2023-04-06T11:21:19;14.40;46.90
33368;DHT22;19724;51.114;13.906;2023-04-06T11:23:45;14.40;47.30
33368;DHT22;19724;51.114;13.906;2023-04-06T11:26:11;14.40;47.00
33368;DHT22;19724;51.114;13.906;2023-04-06T11:28:38;14.60;46.90
33368;DHT22;19724;51.114;13.906;2023-04-06T11:31:05;14.90;46.70
33368;DHT22;19724;51.114;13.906;2023-04-06T11:33:35;15.00;46.30
33368;DHT22;19724;51.114;13.906;2023-04-06T11:36:01;14.90;46.50
33368;DHT22;19724;51.114;13.906;2023-04-06T11:38:26;14.70;45.60
33368;DHT22;19724;51.114;13.906;2023-04-06T11:40:53;14.50;45.90
33368;DHT22;19724;51.114;13.906;2023-04-06T11:43:29;14.50;46.10
33368;DHT22;19724;51.114;13.906;2023-04-06T11:46:03;15.10;45.10
33368;DHT22;19724;51.114;13.906;2023-04-06T11:48:30;15.80;44.40
33368;DHT22;19724;51.114;13.906;2023-04-06T11:50:57;16.40;45.20
33368;DHT22;19724;51.114;13.906;2023-04-06T11:53:23;16.80;43.90
33368;DHT22;19724;51.114;13.906;2023-04-06T11:55:48;17.10;44.00
33368;DHT22;19724;51.114;13.906;2023-04-06T11:58:13;17.20;43.00
33368;DHT22;19724;51.114;13.906;2023-04-06T12:00:39;17.50;43.90
33368;DHT22;19724;51.114;13.906;2023-04-06T12:03:10;17.80;43.40
33368;DHT22;19724;51.114;13.906;2023-04-06T12:05:35;18.20;42.60
33368;DHT22;19724;51.114;13.906;2023-04-06T12:08:01;18.30;41.20
33368;DHT22;19724;51.114;13.906;2023-04-06T12:10:27;17.80;40.80
33368;DHT22;19724;51.114;13.906;2023-04-06T12:12:52;17.50;40.50
33368;DHT22;19724;51.114;13.906;2023-04-06T12:15:18;17.40;40.20
33368;DHT22;19724;51.114;13.906;2023-04-06T12:17:43;17.40;40.20
33368;DHT22;19724;51.114;13.906;2023-04-06T12:20:09;17.70;39.50
33368;DHT22;19724;51.114;13.906;2023-04-06T12:22:35;18.00;40.10
33368;DHT22;19724;51.114;13.906;2023-04-06T12:25:01;18.00;40.40
33368;DHT22;19724;51.114;13.906;2023-04-06T12:27:27;18.00;39.50
33368;DHT22;19724;51.114;13.906;2023-04-06T12:29:53;17.90;40.30
33368;DHT22;19724;51.114;13.906;2023-04-06T12:32:19;18.30;38.70
33368;DHT22;19724;51.114;13.906;2023-04-06T12:34:44;18.50;39.40
33368;DHT22;19724;51.114;13.906;2023-04-06T12:37:10;18.70;39.70
33368;DHT22;19724;51.114;13.906;2023-04-06T12:39:36;19.00;39.50
33368;DHT22;19724;51.114;13.906;2023-04-06T12:42:01;19.20;39.00
33368;DHT22;19724;51.114;13.906;2023-04-06T12:44:28;19.40;38.10
33368;DHT22;19724;51.114;13.906;2023-04-06T12:46:53;19.50;37.10
33368;DHT22;19724;51.114;13.906;2023-04-06T12:49:19;19.60;37.70
33368;DHT22;19724;51.114;13.906;2023-04-06T12:51:45;19.70;37.70
33368;DHT22;19724;51.114;13.906;2023-04-06T12:54:10;19.90;37.80
33368;DHT22;19724;51.114;13.906;2023-04-06T12:56:37;20.20;37.40
33368;DHT22;19724;51.114;13.906;2023-04-06T12:59:02;20.60;36.80
33368;DHT22;19724;51.114;13.906;2023-04-06T13:01:28;20.60;37.20
33368;DHT22;19724;51.114;13.906;2023-04-06T13:03:53;20.60;36.40
33368;DHT22;19724;51.114;13.906;2023-04-06T13:06:19;20.30;36.30
33368;DHT22;19724;51.114;13.906;2023-04-06T13:08:44;19.70;37.40
33368;DHT22;19724;51.114;13.906;2023-04-06T13:11:12;19.10;37.10
33368;DHT22;19724;51.114;13.906;2023-04-06T13:13:38;18.60;37.10
33368;DHT22;19724;51.114;13.906;2023-04-06T13:16:07;18.10;37.40
33368;DHT22;19724;51.114;13.906;2023-04-06T13:18:34;17.90;37.90
33368;DHT22;19724;51.114;13.906;2023-04-06T13:21:02;17.60;38.20
33368;DHT22;19724;51.114;13.906;2023-04-06T13:23:27;17.40;39.00
33368;DHT22;19724;51.114;13.906;2023-04-06T13:28:28;17.30;38.90
33368;DHT22;19724;51.114;13.906;2023-04-06T13:30:54;17.10;38.50
33368;DHT22;19724;51.114;13.906;2023-04-06T13:33:20;17.00;38.80
33368;DHT22;19724;51.114;13.906;2023-04-06T13:35:46;17.30;39.10
33368;DHT22;19724;51.114;13.906;2023-04-06T13:38:12;17.80;39.30
33368;DHT22;19724;51.114;13.906;2023-04-06T13:40:41;18.40;38.30
33368;DHT22;19724;51.114;13.906;2023-04-06T13:43:08;18.80;37.80
33368;DHT22;19724;51.114;13.906;2023-04-06T13:45:33;19.10;37.70
33368;DHT22;19724;51.114;13.906;2023-04-06T13:47:59;19.50;37.30
33368;DHT22;19724;51.114;13.906;2023-04-06T13:50:28;19.80;37.30
33368;DHT22;19724;51.114;13.906;2023-04-06T13:52:53;19.90;36.70
33368;DHT22;19724;51.114;13.906;2023-04-06T13:55:19;20.10;36.40
33368;DHT22;19724;51.114;13.906;2023-04-06T13:57:45;20.10;36.40
33368;DHT22;19724;51.114;13.906;2023-04-06T14:00:11;20.30;35.50
33368;DHT22;19724;51.114;13.906;2023-04-06T14:02:38;20.50;35.40
33368;DHT22;19724;51.114;13.906;2023-04-06T14:05:04;20.90;35.40
33368;DHT22;19724;51.114;13.906;2023-04-06T14:07:30;20.90;35.00
33368;DHT22;19724;51.114;13.906;2023-04-06T14:09:55;21.10;35.10
33368;DHT22;19724;51.114;13.906;2023-04-06T14:12:21;21.40;34.80
33368;DHT22;19724;51.114;13.906;2023-04-06T14:14:46;21.30;34.50
33368;DHT22;19724;51.114;13.906;2023-04-06T14:17:12;21.30;34.50
33368;DHT22;19724;51.114;13.906;2023-04-06T14:19:38;21.30;34.50
33368;DHT22;19724;51.114;13.906;2023-04-06T14:22:04;21.20;34.70
33368;DHT22;19724;51.114;13.906;2023-04-06T14:24:30;21.20;34.40
33368;DHT22;19724;51.114;13.906;2023-04-06T14:26:56;21.20;33.30
33368;DHT22;19724;51.114;13.906;2023-04-06T14:29:22;21.00;33.70
33368;DHT22;19724;51.114;13.906;2023-04-06T14:31:47;20.60;34.20
33368;DHT22;19724;51.114;13.906;2023-04-06T14:34:13;20.70;34.20
33368;DHT22;19724;51.114;13.906;2023-04-06T14:36:38;20.80;34.20
33368;DHT22;19724;51.114;13.906;2023-04-06T14:39:05;20.80;34.10
33368;DHT22;19724;51.114;13.906;2023-04-06T14:41:32;21.00;33.70
33368;DHT22;19724;51.114;13.906;2023-04-06T14:43:57;20.90;33.70
33368;DHT22;19724;51.114;13.906;2023-04-06T14:46:23;20.90;32.90
33368;DHT22;19724;51.114;13.906;2023-04-06T14:48:48;20.60;32.20
33368;DHT22;19724;51.114;13.906;2023-04-06T14:51:14;20.60;32.90
33368;DHT22;19724;51.114;13.906;2023-04-06T14:53:40;20.70;33.00
33368;DHT22;19724;51.114;13.906;2023-04-06T14:56:06;20.80;33.40
33368;DHT22;19724;51.114;13.906;2023-04-06T14:58:31;20.90;33.40
33368;DHT22;19724;51.114;13.906;2023-04-06T15:00:58;21.00;34.40
33368;DHT22;19724;51.114;13.906;2023-04-06T15:03:28;21.00;34.00
33368;DHT22;19724;51.114;13.906;2023-04-06T15:05:56;20.90;33.70
33368;DHT22;19724;51.114;13.906;2023-04-06T15:08:23;20.90;34.10
33368;DHT22;19724;51.114;13.906;2023-04-06T15:10:49;20.80;33.80
33368;DHT22;19724;51.114;13.906;2023-04-06T15:13:15;20.60;33.70
33368;DHT22;19724;51.114;13.906;2023-04-06T15:15:41;20.60;33.90
33368;DHT22;19724;51.114;13.906;2023-04-06T15:18:07;20.60;33.80
33368;DHT22;19724;51.114;13.906;2023-04-06T15:20:32;20.60;33.60
33368;DHT22;19724;51.114;13.906;2023-04-06T15:22:58;20.60;33.00
33368;DHT22;19724;51.114;13.906;2023-04-06T15:25:24;20.60;32.80
33368;DHT22;19724;51.114;13.906;2023-04-06T15:27:49;20.60;33.40